Samuels, Idaho
Current Conditions -  °F | °C
As of 7:35 AM on Saturday 22 Nov 2014 (Local Time) from KSZT Reporting Station
Scattered Clouds Scattered Clouds  
Wind Chill: 28°   Ceiling: Unl
Heat Index: 36°   Visibility: 10mi
Dew Point: 32°   Wind: 10mph
Humidity: 87%   Direction: 250°WSW
Pressure: 29.5"   Gusts: 21mph
Location:  48.48°N, 116.46°W
Report Text: KSZT 221535Z AUTO 25009G18KT 10SM SCT085 02/00 A2950 RMK AO2
Loading
Personal Weather Stations






























Interactive Weather Map New forecast layout! Learn more

10-Day Weather Forecast

Advertisements
Track Severe Weather on mobile